createdAt,value
2022-09-11T12:42:30.440Z,27.59
2022-09-11T12:45:39.498Z,28.59
2022-09-11T12:51:35.568Z,28.69
2022-09-11T12:54:36.281Z,28.62
2022-09-11T12:57:22.196Z,28.71
2022-09-11T13:49:04.261Z,27.49
2022-09-11T14:49:07.430Z,26.56
2022-09-11T15:58:45.833Z,27.09
2022-09-11T16:18:45.935Z,24.70
2022-09-11T16:42:53.104Z,23.58
2022-09-11T16:45:30.924Z,23.03
2022-09-11T16:48:00.866Z,23.41
2022-09-11T16:50:29.594Z,22.66
2022-09-11T16:53:02.868Z,23.32
2022-09-11T16:55:29.986Z,22.25
2022-09-11T16:58:01.061Z,22.58
2022-09-11T17:00:31.925Z,22.65
2022-09-11T17:03:01.015Z,21.95
2022-09-11T17:05:38.399Z,23.09
2022-09-11T17:08:06.969Z,22.35
2022-09-11T17:10:36.629Z,22.42
2022-09-11T17:13:04.520Z,22.89
2022-09-11T17:18:22.541Z,22.64
2022-09-11T17:20:54.946Z,22.41
2022-09-11T17:23:21.861Z,22.64
2022-09-11T17:25:54.193Z,22.16
2022-09-11T17:28:21.633Z,22.50
2022-09-11T17:31:03.746Z,21.46
2022-09-11T17:33:33.431Z,21.28
2022-09-11T17:36:08.527Z,21.65
2022-09-11T17:42:15.118Z,21.00
2022-09-11T17:52:30.193Z,21.89
2022-09-11T17:59:00.655Z,21.75
2022-09-11T18:01:32.104Z,21.30
2022-09-11T18:04:47.216Z,20.53
2022-09-11T18:09:09.104Z,20.58
2022-09-11T18:10:24.364Z,20.77
2022-09-11T18:13:03.455Z,20.47
2022-09-11T18:18:31.220Z,20.97
2022-09-11T18:21:14.308Z,20.87
2022-09-11T18:24:17.382Z,20.39
2022-09-11T18:31:13.713Z,19.70
2022-09-11T18:37:32.056Z,20.62
2022-09-11T18:51:03.364Z,19.69
2022-09-11T18:53:30.432Z,20.17
2022-09-11T18:57:15.913Z,19.48
2022-09-11T19:00:02.260Z,19.68
2022-09-11T19:02:31.449Z,19.99
2022-09-11T19:08:08.318Z,19.32
2022-09-11T19:10:57.248Z,19.78
2022-09-11T19:13:27.204Z,19.48
2022-09-11T19:16:03.418Z,18.91
2022-09-11T19:18:38.170Z,19.62
2022-09-11T19:21:09.441Z,19.58
2022-09-11T19:23:41.524Z,19.55
2022-09-11T19:26:11.107Z,18.97
2022-09-11T19:28:40.734Z,18.66
2022-09-11T19:31:10.044Z,18.76
2022-09-11T19:33:43.879Z,18.76
2022-09-11T19:36:17.597Z,19.39
2022-09-11T19:38:49.757Z,18.47
2022-09-11T19:41:23.976Z,19.33
2022-09-11T19:43:51.204Z,19.29
2022-09-11T19:46:25.582Z,19.27
2022-09-11T19:48:56.347Z,18.08
2022-09-11T19:51:28.915Z,18.06
2022-09-11T19:54:17.727Z,19.19
2022-09-11T19:56:50.932Z,19.17
2022-09-11T19:59:22.490Z,18.13
2022-09-11T20:01:58.271Z,18.98
2022-09-11T20:04:37.652Z,19.11
2022-09-11T20:07:04.612Z,19.08
2022-09-11T20:09:42.988Z,19.07
2022-09-11T20:12:24.840Z,18.80
2022-09-11T20:18:35.395Z,17.55
2022-09-11T20:24:18.657Z,18.83
2022-09-11T20:27:11.271Z,17.86
2022-09-11T20:30:00.498Z,18.77
2022-09-11T20:32:52.287Z,17.98
2022-09-11T20:35:23.220Z,18.67
2022-09-11T20:38:14.527Z,17.46
2022-09-11T20:40:53.313Z,18.58
2022-09-11T20:43:58.163Z,18.04
2022-09-11T20:46:29.138Z,17.73
2022-09-11T20:48:56.057Z,17.73
2022-09-11T20:51:23.350Z,18.35
2022-09-11T20:53:50.477Z,18.24
2022-09-11T20:56:22.375Z,17.15
2022-09-11T20:58:53.611Z,17.15
2022-09-11T21:01:25.477Z,17.02
2022-09-11T21:04:00.469Z,18.16
2022-09-11T21:06:31.730Z,17.23
2022-09-11T21:09:05.653Z,17.12
2022-09-11T21:11:37.712Z,17.09
2022-09-11T21:14:15.921Z,17.87
2022-09-11T21:16:48.628Z,16.80
2022-09-11T21:19:20.512Z,16.68
2022-09-11T21:21:49.880Z,17.54
2022-09-11T21:24:25.716Z,17.80
2022-09-11T21:26:58.197Z,17.75
2022-09-11T21:29:40.098Z,17.07
2022-09-11T21:32:10.242Z,17.49
2022-09-11T21:34:52.103Z,16.49
2022-09-11T21:37:27.732Z,17.60
2022-09-11T21:40:16.353Z,17.34
2022-09-11T21:42:49.950Z,17.54
2022-09-11T21:45:26.861Z,17.53
2022-09-11T21:48:02.876Z,17.03
2022-09-11T21:50:40.520Z,16.41
2022-09-11T21:53:08.638Z,16.30
2022-09-11T21:55:45.616Z,16.36
2022-09-11T21:58:24.432Z,16.32
2022-09-11T22:01:11.893Z,16.95
2022-09-11T22:03:41.919Z,16.46
2022-09-11T22:06:12.708Z,17.12
2022-09-11T22:08:55.101Z,17.16
2022-09-11T22:11:23.090Z,17.23
2022-09-11T22:13:56.874Z,17.21
2022-09-11T22:16:50.795Z,16.93
2022-09-11T22:19:20.682Z,17.11
2022-09-11T22:21:59.622Z,16.64
2022-09-11T22:24:26.366Z,16.39
2022-09-11T22:27:02.786Z,15.74
2022-09-11T22:29:32.914Z,15.97
2022-09-11T22:32:13.488Z,15.72
2022-09-11T22:34:45.152Z,16.76
2022-09-11T22:37:25.098Z,16.26
2022-09-11T22:39:55.587Z,16.78
2022-09-11T22:42:24.997Z,16.31
2022-09-11T22:44:52.352Z,16.72
2022-09-11T22:47:26.329Z,16.49
2022-09-11T22:49:57.973Z,16.38
2022-09-11T22:52:29.723Z,16.36
2022-09-11T22:54:57.096Z,16.32
2022-09-11T22:57:31.347Z,15.52
2022-09-11T23:00:09.065Z,16.32
2022-09-11T23:02:40.009Z,15.40
2022-09-11T23:05:09.625Z,15.93
2022-09-11T23:07:36.427Z,16.43
2022-09-11T23:10:06.066Z,15.42
2022-09-11T23:12:37.495Z,16.06
2022-09-11T23:15:11.617Z,16.25
2022-09-11T23:17:43.108Z,16.12
2022-09-11T23:20:12.193Z,16.01
2022-09-11T23:25:21.696Z,16.19
2022-09-11T23:27:53.713Z,16.18
2022-09-11T23:30:25.678Z,15.76
2022-09-11T23:32:54.555Z,15.68
2022-09-11T23:35:21.510Z,16.13
2022-09-11T23:37:48.890Z,15.29
2022-09-11T23:40:17.926Z,15.77
2022-09-11T23:42:47.860Z,15.82
2022-09-11T23:45:15.212Z,14.98
2022-09-11T23:47:51.079Z,16.08
2022-09-11T23:50:22.117Z,15.14
2022-09-11T23:52:52.364Z,16.06
2022-09-11T23:55:25.743Z,16.05
2022-09-11T23:57:59.205Z,15.02
